Taiseimaru — JL6483 — position and weather

sailwx.info

Track history (hours):
 
Tides and Currents Weather Stations Pressure Air Temp Water Temp Dewpoint Dewpoint Depression Visibility Wind Speed Wind Dir Waves Ship Positions

Taiseimaru

Last reported at 2015-Mar-22 00:30 UTC. Time now 2015-Mar-28 09:21 UTC.
Position N 35°02' E 139°30'.

Length 84 m; draft 4.7 m.

Type: Cargo ship. MMSI: 431500568.

Date/timePositionNaut miles runAvg speedWind from/ knotsBaromVisibWave heightAir tempDewpointWater temp
2015-Mar-22 00:30N 35°02' E 139°30'1111.9
2015-Mar-21 23:33N 35°07' E 139°42'1111.5
2015-Mar-21 22:34N 35°19' E 139°44'10 9.5
2015-Mar-21 21:32N 35°28' E 139°42'0 0.0
2015-Mar-21 20:32N 35°28' E 139°42'0 0.0
2015-Mar-21 19:32N 35°28' E 139°42'0 0.0
2015-Mar-21 18:32N 35°28' E 139°42'0 0.0
2015-Mar-21 17:32N 35°28' E 139°42'0 0.0
2015-Mar-21 16:32N 35°28' E 139°42'0 0.0
2015-Mar-21 15:32N 35°28' E 139°42'0 0.0
2015-Mar-21 14:32N 35°28' E 139°42'0 0.0
2015-Mar-21 13:32N 35°28' E 139°42'0 0.0
2015-Mar-21 12:32N 35°28' E 139°42'3 2.8
2015-Mar-21 11:34N 35°26' E 139°44'2 1.9
2015-Mar-21 10:32N 35°24' E 139°45'0 0.0
2015-Mar-21 09:32N 35°24' E 139°45'0 0.0
2015-Mar-21 08:32N 35°24' E 139°45'0 0.1
2015-Mar-21 07:32N 35°24' E 139°45'0 0.0
2015-Mar-21 06:32N 35°24' E 139°45'0 0.2
2015-Mar-21 05:33N 35°24' E 139°45'1110.6
2015-Mar-21 04:34N 35°14' E 139°47'1110.8
2015-Mar-21 03:33N 35°04' E 139°41'249 9.5
2015-Mar-20 01:17N 34°06' E 134°46'30 0.8
2015-Mar-18 11:27N 34°36' E 134°53'1112.7
2015-Mar-18 10:33N 34°36' E 135°07'1212.0
2015-Mar-18 09:33N 34°36' E 135°22'3 3.4
2015-Mar-18 08:33N 34°35' E 135°26'0 0.0
2015-Mar-18 07:27N 34°35' E 135°26'0 0.0
2015-Mar-18 06:09N 34°35' E 135°26'0 0.0
2015-Mar-18 03:27N 34°35' E 135°26'0 0.0
2015-Mar-18 02:09N 34°35' E 135°26'0 0.0
2015-Mar-18 01:15N 34°35' E 135°26'0 0.1
2015-Mar-18 00:33N 34°35' E 135°26'0 0.0
2015-Mar-17 23:33N 34°35' E 135°26'0 0.0
2015-Mar-17 22:33N 34°35' E 135°26'0 0.0
2015-Mar-17 21:33N 34°35' E 135°26'0 0.0
2015-Mar-17 20:33N 34°35' E 135°26'0 0.0
2015-Mar-17 19:33N 34°35' E 135°26'0 0.0
2015-Mar-17 18:33N 34°35' E 135°26'0 0.0
2015-Mar-17 17:33N 34°35' E 135°26'0 0.0
2015-Mar-17 16:33N 34°35' E 135°26'0 0.0
2015-Mar-17 15:33N 34°35' E 135°26'0 0.0
2015-Mar-17 14:33N 34°35' E 135°26'0 0.0
2015-Mar-17 13:33N 34°35' E 135°26'0 0.0
2015-Mar-17 12:33N 34°35' E 135°26'0 0.0
2015-Mar-17 11:21N 34°35' E 135°26'0 0.0
2015-Mar-17 10:27N 34°35' E 135°26'0 0.0
2015-Mar-17 09:33N 34°35' E 135°26'0 0.0
2015-Mar-17 08:33N 34°35' E 135°26'0 0.0
2015-Mar-17 04:33N 34°35' E 135°26'0 0.0
2015-Mar-17 03:33N 34°35' E 135°26'0 0.0
2015-Mar-17 02:34N 34°35' E 135°26'0 0.0
2015-Mar-17 01:33N 34°35' E 135°26'0 0.0
2015-Mar-17 00:34N 34°35' E 135°26'0 0.0
2015-Mar-16 23:33N 34°35' E 135°26'3 2.6
2015-Mar-16 22:34N 34°36' E 135°23'0 0.4
2015-Mar-16 21:30N 34°36' E 135°23'0 0.0
2015-Mar-16 20:30N 34°36' E 135°23'0 0.0
2015-Mar-16 19:30N 34°36' E 135°23'0 0.0
2015-Mar-16 18:30N 34°36' E 135°23'0 0.0
2015-Mar-16 17:30N 34°36' E 135°23'0 0.0
2015-Mar-16 16:30N 34°36' E 135°23'0 0.0
2015-Mar-16 15:30N 34°36' E 135°23'0 0.0
2015-Mar-16 14:18N 34°36' E 135°23'0 0.0
2015-Mar-16 13:30N 34°36' E 135°23'0 0.0
2015-Mar-16 12:30N 34°36' E 135°23'0 0.0
2015-Mar-16 10:30N 34°36' E 135°23'0 0.0
2015-Mar-16 09:24N 34°36' E 135°23'0 0.0
2015-Mar-16 08:30N 34°36' E 135°23'0 0.0
2015-Mar-16 07:30N 34°36' E 135°23'0 0.0
2015-Mar-16 06:18N 34°36' E 135°23'0 0.0
2015-Mar-16 05:30N 34°36' E 135°23'0 0.0
2015-Mar-16 04:24N 34°36' E 135°23'0 0.6
2015-Mar-16 03:32N 34°36' E 135°23'1010.6
2015-Mar-16 02:33N 34°28' E 135°13'1110.6
2015-Mar-16 01:32N 34°21' E 135°04'9 8.9
2015-Mar-16 00:33N 34°13' E 134°60'1010.5
2015-Mar-15 23:33N 34°02' E 135°01'226 9.4
2015-Mar-14 23:30N 35°00' E 139°26'1010.4
2015-Mar-14 22:33N 35°05' E 139°36'1111.4
2015-Mar-14 21:34N 35°13' E 139°46'1111.1
2015-Mar-14 20:34N 35°24' E 139°43'5 4.3
2015-Mar-14 19:29N 35°28' E 139°42'0 0.0
2015-Mar-14 18:32N 35°28' E 139°42'0 0.0
2015-Mar-14 17:32N 35°28' E 139°42'0 0.0
2015-Mar-14 16:32N 35°28' E 139°42'0 0.0
2015-Mar-14 15:32N 35°28' E 139°42'0 0.0
2015-Mar-14 14:32N 35°28' E 139°42'0 0.0
2015-Mar-14 13:32N 35°28' E 139°42'0 0.0
2015-Mar-14 12:32N 35°28' E 139°42'0 0.0
2015-Mar-14 11:32N 35°28' E 139°42'0 0.0
2015-Mar-14 10:32N 35°28' E 139°42'0 0.0
2015-Mar-14 09:32N 35°28' E 139°42'0 0.0
2015-Mar-14 08:32N 35°28' E 139°42'0 0.0
2015-Mar-14 07:29N 35°28' E 139°42'0 0.0
2015-Mar-14 06:32N 35°28' E 139°42'0 0.0
2015-Mar-14 05:32N 35°28' E 139°42'0 0.0
2015-Mar-14 04:32N 35°28' E 139°42'0 0.0
2015-Mar-14 03:32N 35°28' E 139°42'0 0.0
2015-Mar-14 02:32N 35°28' E 139°42'0 0.0
2015-Mar-14 01:29N 35°28' E 139°42'0 0.0
2015-Mar-14 00:32N 35°28' E 139°42'0 0.0
2015-Mar-13 23:32N 35°28' E 139°42'0 0.0
2015-Mar-13 22:32N 35°28' E 139°42'0 0.0
2015-Mar-13 21:32N 35°28' E 139°42'0 0.0
2015-Mar-13 20:32N 35°28' E 139°42'0 0.0
2015-Mar-13 19:32N 35°28' E 139°42'0 0.0
2015-Mar-13 18:32N 35°28' E 139°42'0 0.0
2015-Mar-13 17:32N 35°28' E 139°42'0 0.0
2015-Mar-13 16:32N 35°28' E 139°42'0 0.0
2015-Mar-13 15:32N 35°28' E 139°42'0 0.0
2015-Mar-13 14:29N 35°28' E 139°42'0 0.0
2015-Mar-13 13:29N 35°28' E 139°42'0 0.0
2015-Mar-13 12:32N 35°28' E 139°42'0 0.0
2015-Mar-13 11:32N 35°28' E 139°42'0 0.0
2015-Mar-13 10:31N 35°28' E 139°42'0 0.0
2015-Mar-13 09:31N 35°28' E 139°42'0 0.0
2015-Mar-13 08:31N 35°28' E 139°42'0 0.0
2015-Mar-13 07:31N 35°28' E 139°42'0 0.0
2015-Mar-13 06:31N 35°28' E 139°42'0 0.0
2015-Mar-13 05:31N 35°28' E 139°42'0 0.0
2015-Mar-13 04:31N 35°28' E 139°42'0 0.0
2015-Mar-13 03:31N 35°28' E 139°42'0 0.0
2015-Mar-13 02:31N 35°28' E 139°42'0 0.0
2015-Mar-13 01:31N 35°28' E 139°42'0 0.0
2015-Mar-13 00:31N 35°28' E 139°42'0 0.0
2015-Mar-12 23:31N 35°28' E 139°42'4 4.4
2015-Mar-12 22:33N 35°25' E 139°45'0 0.2
2015-Mar-12 21:33N 35°25' E 139°45'0 0.3
2015-Mar-12 20:33N 35°24' E 139°45'1110.6
2015-Mar-12 19:33N 35°14' E 139°47'1211.9
2015-Mar-12 18:33N 35°02' E 139°44'  
Track history (hours):
 
Tides and Currents Weather Stations Pressure Air Temp Water Temp Dewpoint Dewpoint Depression Visibility Wind Speed Wind Dir Waves Ship Positions

Taiseimaru

Last reported at 2015-Mar-22 00:30 UTC. Time now 2015-Mar-28 09:21 UTC.
Position N 35°02' E 139°30'.

Length 84 m; draft 4.7 m.

Type: Cargo ship. MMSI: 431500568.

Date/timePositionNaut miles runAvg speedWind from/ knotsBaromVisibWave heightAir tempDewpointWater temp
2015-Mar-22 00:30N 35°02' E 139°30'1111.9
2015-Mar-21 23:33N 35°07' E 139°42'1111.5
2015-Mar-21 22:34N 35°19' E 139°44'10 9.5
2015-Mar-21 21:32N 35°28' E 139°42'0 0.0
2015-Mar-21 20:32N 35°28' E 139°42'0 0.0
2015-Mar-21 19:32N 35°28' E 139°42'0 0.0
2015-Mar-21 18:32N 35°28' E 139°42'0 0.0
2015-Mar-21 17:32N 35°28' E 139°42'0 0.0
2015-Mar-21 16:32N 35°28' E 139°42'0 0.0
2015-Mar-21 15:32N 35°28' E 139°42'0 0.0
2015-Mar-21 14:32N 35°28' E 139°42'0 0.0
2015-Mar-21 13:32N 35°28' E 139°42'0 0.0
2015-Mar-21 12:32N 35°28' E 139°42'3 2.8
2015-Mar-21 11:34N 35°26' E 139°44'2 1.9
2015-Mar-21 10:32N 35°24' E 139°45'0 0.0
2015-Mar-21 09:32N 35°24' E 139°45'0 0.0
2015-Mar-21 08:32N 35°24' E 139°45'0 0.1
2015-Mar-21 07:32N 35°24' E 139°45'0 0.0
2015-Mar-21 06:32N 35°24' E 139°45'0 0.2
2015-Mar-21 05:33N 35°24' E 139°45'1110.6
2015-Mar-21 04:34N 35°14' E 139°47'1110.8
2015-Mar-21 03:33N 35°04' E 139°41'249 9.5
2015-Mar-20 01:17N 34°06' E 134°46'30 0.8
2015-Mar-18 11:27N 34°36' E 134°53'1112.7
2015-Mar-18 10:33N 34°36' E 135°07'1212.0
2015-Mar-18 09:33N 34°36' E 135°22'3 3.4
2015-Mar-18 08:33N 34°35' E 135°26'0 0.0
2015-Mar-18 07:27N 34°35' E 135°26'0 0.0
2015-Mar-18 06:09N 34°35' E 135°26'0 0.0
2015-Mar-18 03:27N 34°35' E 135°26'0 0.0
2015-Mar-18 02:09N 34°35' E 135°26'0 0.0
2015-Mar-18 01:15N 34°35' E 135°26'0 0.1
2015-Mar-18 00:33N 34°35' E 135°26'0 0.0
2015-Mar-17 23:33N 34°35' E 135°26'0 0.0
2015-Mar-17 22:33N 34°35' E 135°26'0 0.0
2015-Mar-17 21:33N 34°35' E 135°26'0 0.0
2015-Mar-17 20:33N 34°35' E 135°26'0 0.0
2015-Mar-17 19:33N 34°35' E 135°26'0 0.0
2015-Mar-17 18:33N 34°35' E 135°26'0 0.0
2015-Mar-17 17:33N 34°35' E 135°26'0 0.0
2015-Mar-17 16:33N 34°35' E 135°26'0 0.0
2015-Mar-17 15:33N 34°35' E 135°26'0 0.0
2015-Mar-17 14:33N 34°35' E 135°26'0 0.0
2015-Mar-17 13:33N 34°35' E 135°26'0 0.0
2015-Mar-17 12:33N 34°35' E 135°26'0 0.0
2015-Mar-17 11:21N 34°35' E 135°26'0 0.0
2015-Mar-17 10:27N 34°35' E 135°26'0 0.0
2015-Mar-17 09:33N 34°35' E 135°26'0 0.0
2015-Mar-17 08:33N 34°35' E 135°26'0 0.0
2015-Mar-17 04:33N 34°35' E 135°26'0 0.0
2015-Mar-17 03:33N 34°35' E 135°26'0 0.0
2015-Mar-17 02:34N 34°35' E 135°26'0 0.0
2015-Mar-17 01:33N 34°35' E 135°26'0 0.0
2015-Mar-17 00:34N 34°35' E 135°26'0 0.0
2015-Mar-16 23:33N 34°35' E 135°26'3 2.6
2015-Mar-16 22:34N 34°36' E 135°23'0 0.4
2015-Mar-16 21:30N 34°36' E 135°23'0 0.0
2015-Mar-16 20:30N 34°36' E 135°23'0 0.0
2015-Mar-16 19:30N 34°36' E 135°23'0 0.0
2015-Mar-16 18:30N 34°36' E 135°23'0 0.0
2015-Mar-16 17:30N 34°36' E 135°23'0 0.0
2015-Mar-16 16:30N 34°36' E 135°23'0 0.0
2015-Mar-16 15:30N 34°36' E 135°23'0 0.0
2015-Mar-16 14:18N 34°36' E 135°23'0 0.0
2015-Mar-16 13:30N 34°36' E 135°23'0 0.0
2015-Mar-16 12:30N 34°36' E 135°23'0 0.0
2015-Mar-16 10:30N 34°36' E 135°23'0 0.0
2015-Mar-16 09:24N 34°36' E 135°23'0 0.0
2015-Mar-16 08:30N 34°36' E 135°23'0 0.0
2015-Mar-16 07:30N 34°36' E 135°23'0 0.0
2015-Mar-16 06:18N 34°36' E 135°23'0 0.0
2015-Mar-16 05:30N 34°36' E 135°23'0 0.0
2015-Mar-16 04:24N 34°36' E 135°23'0 0.6
2015-Mar-16 03:32N 34°36' E 135°23'1010.6
2015-Mar-16 02:33N 34°28' E 135°13'1110.6
2015-Mar-16 01:32N 34°21' E 135°04'9 8.9
2015-Mar-16 00:33N 34°13' E 134°60'1010.5
2015-Mar-15 23:33N 34°02' E 135°01'226 9.4
2015-Mar-14 23:30N 35°00' E 139°26'1010.4
2015-Mar-14 22:33N 35°05' E 139°36'1111.4
2015-Mar-14 21:34N 35°13' E 139°46'1111.1
2015-Mar-14 20:34N 35°24' E 139°43'5 4.3
2015-Mar-14 19:29N 35°28' E 139°42'0 0.0
2015-Mar-14 18:32N 35°28' E 139°42'0 0.0
2015-Mar-14 17:32N 35°28' E 139°42'0 0.0
2015-Mar-14 16:32N 35°28' E 139°42'0 0.0
2015-Mar-14 15:32N 35°28' E 139°42'0 0.0
2015-Mar-14 14:32N 35°28' E 139°42'0 0.0
2015-Mar-14 13:32N 35°28' E 139°42'0 0.0
2015-Mar-14 12:32N 35°28' E 139°42'0 0.0
2015-Mar-14 11:32N 35°28' E 139°42'0 0.0
2015-Mar-14 10:32N 35°28' E 139°42'0 0.0
2015-Mar-14 09:32N 35°28' E 139°42'0 0.0
2015-Mar-14 08:32N 35°28' E 139°42'0 0.0
2015-Mar-14 07:29N 35°28' E 139°42'0 0.0
2015-Mar-14 06:32N 35°28' E 139°42'0 0.0
2015-Mar-14 05:32N 35°28' E 139°42'0 0.0
2015-Mar-14 04:32N 35°28' E 139°42'0 0.0
2015-Mar-14 03:32N 35°28' E 139°42'0 0.0
2015-Mar-14 02:32N 35°28' E 139°42'0 0.0
2015-Mar-14 01:29N 35°28' E 139°42'0 0.0
2015-Mar-14 00:32N 35°28' E 139°42'0 0.0
2015-Mar-13 23:32N 35°28' E 139°42'0 0.0
2015-Mar-13 22:32N 35°28' E 139°42'0 0.0
2015-Mar-13 21:32N 35°28' E 139°42'0 0.0
2015-Mar-13 20:32N 35°28' E 139°42'0 0.0
2015-Mar-13 19:32N 35°28' E 139°42'0 0.0
2015-Mar-13 18:32N 35°28' E 139°42'0 0.0
2015-Mar-13 17:32N 35°28' E 139°42'0 0.0
2015-Mar-13 16:32N 35°28' E 139°42'0 0.0
2015-Mar-13 15:32N 35°28' E 139°42'0 0.0
2015-Mar-13 14:29N 35°28' E 139°42'0 0.0
2015-Mar-13 13:29N 35°28' E 139°42'0 0.0
2015-Mar-13 12:32N 35°28' E 139°42'0 0.0
2015-Mar-13 11:32N 35°28' E 139°42'0 0.0
2015-Mar-13 10:31N 35°28' E 139°42'0 0.0
2015-Mar-13 09:31N 35°28' E 139°42'0 0.0
2015-Mar-13 08:31N 35°28' E 139°42'0 0.0
2015-Mar-13 07:31N 35°28' E 139°42'0 0.0
2015-Mar-13 06:31N 35°28' E 139°42'0 0.0
2015-Mar-13 05:31N 35°28' E 139°42'0 0.0
2015-Mar-13 04:31N 35°28' E 139°42'0 0.0
2015-Mar-13 03:31N 35°28' E 139°42'0 0.0
2015-Mar-13 02:31N 35°28' E 139°42'0 0.0
2015-Mar-13 01:31N 35°28' E 139°42'0 0.0
2015-Mar-13 00:31N 35°28' E 139°42'0 0.0
2015-Mar-12 23:31N 35°28' E 139°42'4 4.4
2015-Mar-12 22:33N 35°25' E 139°45'0 0.2
2015-Mar-12 21:33N 35°25' E 139°45'0 0.3
2015-Mar-12 20:33N 35°24' E 139°45'1110.6
2015-Mar-12 19:33N 35°14' E 139°47'1211.9
2015-Mar-12 18:33N 35°02' E 139°44'  

Dump ship's entire track history